Time;durP1;ratioP1;P1;durP2;ratioP2;P2;SDS_P1;SDS_P2;PMS_P1;PMS_P2;Temp;Humidity;BMP_temperature;BMP_pressure;BME280_temperature;BME280_humidity;BME280_pressure;Samples;Min_cycle;Max_cycle;Signal;HPM_P1;HPM_P2
2023/03/23 00:01:55;;;;;;;;;;;10.90;99.90;;;;;;5068365;28;19908;-76
2023/03/23 00:04:20;;;;;;;;;;;10.90;99.90;;;;;;5081492;28;19938;-76
2023/03/23 00:06:46;;;;;;;;;;;10.90;99.90;;;;;;5088762;28;20416;-76
2023/03/23 00:09:14;;;;;;;;;;;10.80;99.90;;;;;;5089172;28;19908;-76
2023/03/23 00:11:41;;;;;;;;;;;10.80;99.90;;;;;;5088855;28;19916;-76
2023/03/23 00:14:12;;;;;;;;;;;10.80;99.90;;;;;;5088968;28;19915;-76
2023/03/23 00:16:40;;;;;;;;;;;10.80;99.90;;;;;;5081324;28;20378;-76
2023/03/23 00:19:15;;;;;;;;;;;10.80;99.90;;;;;;5068571;28;20381;-76
2023/03/23 00:21:42;;;;;;;;;;;10.80;99.90;;;;;;5067961;28;19920;-77
2023/03/23 00:24:08;;;;;;;;;;;10.90;99.90;;;;;;5067962;28;20005;-77
2023/03/23 00:26:34;;;;;;;;;;;10.80;99.90;;;;;;5068255;28;20009;-76
2023/03/23 00:29:01;;;;;;;;;;;10.80;99.90;;;;;;5068491;28;19920;-76
2023/03/23 00:31:35;;;;;;;;;;;10.80;99.90;;;;;;5061393;28;19951;-76
2023/03/23 00:34:01;;;;;;;;;;;10.80;99.90;;;;;;5067787;28;20432;-79
2023/03/23 00:36:27;;;;;;;;;;;10.80;99.90;;;;;;5068207;28;20331;-79
2023/03/23 00:38:52;;;;;;;;;;;10.80;99.90;;;;;;5068154;28;19912;-79
2023/03/23 00:41:18;;;;;;;;;;;10.80;99.90;;;;;;5067813;28;19939;-79
2023/03/23 00:43:43;;;;;;;;;;;10.80;99.90;;;;;;5049966;28;19912;-79
2023/03/23 00:46:09;;;;;;;;;;;10.80;99.90;;;;;;5068044;28;20489;-79
2023/03/23 00:48:36;;;;;;;;;;;10.80;99.90;;;;;;5068131;28;19959;-79
2023/03/23 00:51:05;;;;;;;;;;;10.80;99.90;;;;;;5067445;28;20311;-79
2023/03/23 00:53:32;;;;;;;;;;;10.80;99.90;;;;;;5067755;28;19990;-79
2023/03/23 00:55:57;;;;;;;;;;;10.70;99.90;;;;;;5068018;28;19965;-79
2023/03/23 00:58:23;;;;;;;;;;;10.70;99.90;;;;;;5067865;28;19913;-79
2023/03/23 01:00:48;;;;;;;;;;;10.70;99.90;;;;;;5067905;28;19920;-79
2023/03/23 01:03:17;;;;;;;;;;;10.70;99.90;;;;;;5067915;28;20546;-79
2023/03/23 01:05:43;;;;;;;;;;;10.70;99.90;;;;;;5067996;28;19912;-77
2023/03/23 01:08:10;;;;;;;;;;;10.70;99.90;;;;;;5067718;28;19920;-79
2023/03/23 01:10:38;;;;;;;;;;;10.70;99.90;;;;;;5067691;28;19920;-79
2023/03/23 01:13:04;;;;;;;;;;;10.70;99.90;;;;;;5067565;28;19912;-78
2023/03/23 01:15:29;;;;;;;;;;;10.70;99.90;;;;;;5067845;28;19912;-78
2023/03/23 01:17:55;;;;;;;;;;;10.70;99.90;;;;;;5067345;28;19957;-79
2023/03/23 01:20:21;;;;;;;;;;;10.70;99.90;;;;;;5067256;28;20393;-78
2023/03/23 01:22:47;;;;;;;;;;;10.70;99.90;;;;;;5067309;28;19909;-78
2023/03/23 01:25:13;;;;;;;;;;;10.70;99.90;;;;;;5067763;28;20353;-78
2023/03/23 01:27:39;;;;;;;;;;;10.70;99.90;;;;;;5067675;28;19919;-78
2023/03/23 01:30:07;;;;;;;;;;;10.70;99.90;;;;;;5061181;28;19934;-78
2023/03/23 01:32:32;;;;;;;;;;;10.70;99.90;;;;;;5066812;28;19920;-78
2023/03/23 01:34:58;;;;;;;;;;;10.70;99.90;;;;;;5067857;28;19917;-79
2023/03/23 01:37:26;;;;;;;;;;;10.70;99.90;;;;;;5067237;28;19912;-78
2023/03/23 01:39:54;;;;;;;;;;;10.70;99.90;;;;;;5067376;28;19920;-78
2023/03/23 01:42:21;;;;;;;;;;;10.70;99.90;;;;;;5067045;28;19913;-78
2023/03/23 01:44:46;;;;;;;;;;;10.70;99.90;;;;;;5067990;28;19943;-78
2023/03/23 01:47:12;;;;;;;;;;;10.60;99.90;;;;;;5071175;28;20404;-78
2023/03/23 01:49:39;;;;;;;;;;;10.60;99.90;;;;;;5071653;28;20007;-78
2023/03/23 01:52:16;;;;;;;;;;;10.60;99.90;;;;;;5070638;28;19951;-78
2023/03/23 01:54:44;;;;;;;;;;;10.60;99.90;;;;;;5071490;28;19908;-79
2023/03/23 01:57:15;;;;;;;;;;;10.60;99.90;;;;;;5071220;28;19909;-78
2023/03/23 01:59:42;;;;;;;;;;;10.60;99.90;;;;;;5071353;28;19924;-78
2023/03/23 02:02:10;;;;;;;;;;;10.60;99.90;;;;;;5069363;28;19966;-78
2023/03/23 02:04:36;;;;;;;;;;;10.60;99.90;;;;;;5071439;28;19909;-79
2023/03/23 02:07:03;;;;;;;;;;;10.60;99.90;;;;;;5070926;28;20558;-78
2023/03/23 02:09:28;;;;;;;;;;;10.60;99.90;;;;;;5071349;28;19919;-78
2023/03/23 02:11:54;;;;;;;;;;;10.60;99.90;;;;;;5070768;28;19999;-78
2023/03/23 02:14:20;;;;;;;;;;;10.60;99.90;;;;;;5070932;28;19940;-78
2023/03/23 02:17:00;;;;;;;;;;;10.60;99.90;;;;;;5070803;28;19920;-78
2023/03/23 02:19:44;;;;;;;;;;;10.60;99.90;;;;;;5070486;28;19954;-78
2023/03/23 02:22:14;;;;;;;;;;;10.60;99.90;;;;;;5051930;28;20262;-79
2023/03/23 02:24:50;;;;;;;;;;;10.60;99.90;;;;;;5070995;28;19916;-78
2023/03/23 02:27:33;;;;;;;;;;;10.60;99.90;;;;;;5070773;28;19913;-79
2023/03/23 02:30:08;;;;;;;;;;;10.60;99.90;;;;;;5048883;28;20358;-79
2023/03/23 02:32:53;;;;;;;;;;;10.60;99.90;;;;;;5062312;28;19994;-79
2023/03/23 02:35:24;;;;;;;;;;;10.60;99.90;;;;;;5036070;28;19920;-79
2023/03/23 02:37:56;;;;;;;;;;;10.60;99.90;;;;;;5070307;28;19966;-78
2023/03/23 02:40:28;;;;;;;;;;;10.60;99.90;;;;;;5070296;28;19913;-79
2023/03/23 02:42:55;;;;;;;;;;;10.60;99.90;;;;;;5070209;28;19912;-79
2023/03/23 02:45:21;;;;;;;;;;;10.60;99.90;;;;;;5070613;28;19916;-78
2023/03/23 02:47:48;;;;;;;;;;;10.60;99.90;;;;;;5069998;28;20276;-78
2023/03/23 02:50:15;;;;;;;;;;;10.60;99.90;;;;;;5070192;28;19930;-78
2023/03/23 02:52:41;;;;;;;;;;;10.60;99.90;;;;;;5069649;28;19920;-79
2023/03/23 02:55:07;;;;;;;;;;;10.50;99.90;;;;;;5070424;28;19918;-79
2023/03/23 02:57:32;;;;;;;;;;;10.50;99.90;;;;;;5069467;28;20019;-78
2023/03/23 02:59:58;;;;;;;;;;;10.50;99.90;;;;;;5070221;28;19928;-78
2023/03/23 03:02:28;;;;;;;;;;;10.50;99.90;;;;;;5069668;28;19944;-78
2023/03/23 03:04:54;;;;;;;;;;;10.50;99.90;;;;;;5087259;28;19912;-78
2023/03/23 03:07:31;;;;;;;;;;;10.50;99.90;;;;;;5071913;28;20003;-78
2023/03/23 03:10:00;;;;;;;;;;;10.50;99.90;;;;;;5072000;28;20349;-78
2023/03/23 03:12:50;;;;;;;;;;;10.50;99.90;;;;;;5089975;28;19912;-78
2023/03/23 03:15:25;;;;;;;;;;;10.50;99.90;;;;;;5090260;28;19972;-79
2023/03/23 03:18:05;;;;;;;;;;;10.50;99.90;;;;;;5072381;28;19917;-78
2023/03/23 03:20:32;;;;;;;;;;;10.50;99.90;;;;;;5069300;28;19921;-79
2023/03/23 03:22:58;;;;;;;;;;;10.50;99.90;;;;;;5069612;28;19912;-78
2023/03/23 03:25:25;;;;;;;;;;;10.50;99.90;;;;;;5069972;28;20357;-78
2023/03/23 03:27:52;;;;;;;;;;;10.50;99.90;;;;;;5069678;28;19916;-79
2023/03/23 03:30:21;;;;;;;;;;;10.50;99.90;;;;;;5051336;28;19909;-79
2023/03/23 03:32:53;;;;;;;;;;;10.50;99.90;;;;;;5068590;28;19912;-78
2023/03/23 03:35:20;;;;;;;;;;;10.50;99.90;;;;;;5049577;28;19935;-79
2023/03/23 03:37:46;;;;;;;;;;;10.50;99.90;;;;;;5049283;28;19919;-79
2023/03/23 03:40:13;;;;;;;;;;;10.50;99.90;;;;;;5056771;28;19917;-79
2023/03/23 03:42:40;;;;;;;;;;;10.50;99.90;;;;;;5063678;28;20532;-79
2023/03/23 03:45:07;;;;;;;;;;;10.50;99.90;;;;;;5069282;28;20023;-79
2023/03/23 03:47:32;;;;;;;;;;;10.40;99.90;;;;;;5051323;28;19916;-79
2023/03/23 03:49:58;;;;;;;;;;;10.40;99.90;;;;;;5069079;28;19920;-79
2023/03/23 03:52:23;;;;;;;;;;;10.40;99.90;;;;;;5068745;28;20009;-79
2023/03/23 03:54:49;;;;;;;;;;;10.40;99.90;;;;;;5068904;28;19917;-79
2023/03/23 03:57:14;;;;;;;;;;;10.40;99.90;;;;;;5068855;28;19944;-79
2023/03/23 03:59:40;;;;;;;;;;;10.40;99.90;;;;;;5069150;28;19916;-79
2023/03/23 04:02:06;;;;;;;;;;;10.40;99.90;;;;;;5068504;28;19970;-79
2023/03/23 04:04:31;;;;;;;;;;;10.40;99.90;;;;;;5083444;28;19912;-79
2023/03/23 04:06:57;;;;;;;;;;;10.40;99.90;;;;;;5074384;28;19919;-79
2023/03/23 04:09:22;;;;;;;;;;;10.40;99.90;;;;;;5068626;28;20531;-79
2023/03/23 04:11:48;;;;;;;;;;;10.40;99.90;;;;;;5068590;28;19912;-79
2023/03/23 04:14:14;;;;;;;;;;;10.40;99.90;;;;;;5071437;28;19912;-79
2023/03/23 04:16:40;;;;;;;;;;;10.50;99.90;;;;;;5068668;28;19912;-79
2023/03/23 04:19:06;;;;;;;;;;;10.40;99.90;;;;;;5068876;28;19947;-79
2023/03/23 04:21:31;;;;;;;;;;;10.40;99.90;;;;;;5067920;28;20018;-80
2023/03/23 04:24:00;;;;;;;;;;;10.40;99.90;;;;;;5068474;28;19908;-78
2023/03/23 04:26:28;;;;;;;;;;;10.40;99.90;;;;;;5068737;28;19919;-79
2023/03/23 04:28:54;;;;;;;;;;;10.40;99.90;;;;;;5068364;28;19913;-79
2023/03/23 04:31:20;;;;;;;;;;;10.40;99.90;;;;;;5067566;28;20098;-79
2023/03/23 04:33:46;;;;;;;;;;;10.40;99.90;;;;;;5062027;28;20462;-79
2023/03/23 04:36:15;;;;;;;;;;;10.40;99.90;;;;;;5068365;28;19919;-79
2023/03/23 04:38:42;;;;;;;;;;;10.40;99.90;;;;;;5068406;28;19909;-79
2023/03/23 04:41:08;;;;;;;;;;;10.40;99.90;;;;;;5067729;28;19916;-79
2023/03/23 04:43:41;;;;;;;;;;;10.40;99.90;;;;;;5068091;28;19917;-79
2023/03/23 04:46:08;;;;;;;;;;;10.40;99.90;;;;;;5067886;28;19936;-79
2023/03/23 04:48:34;;;;;;;;;;;10.40;99.90;;;;;;5068139;28;20336;-80
2023/03/23 04:51:03;;;;;;;;;;;10.40;99.90;;;;;;5067591;28;19973;-79
2023/03/23 04:53:32;;;;;;;;;;;10.40;99.90;;;;;;5068087;28;19912;-79
2023/03/23 04:55:58;;;;;;;;;;;10.40;99.90;;;;;;5068369;28;19919;-79
2023/03/23 04:58:24;;;;;;;;;;;10.40;99.90;;;;;;5049723;28;19913;-79
2023/03/23 05:00:50;;;;;;;;;;;10.40;99.90;;;;;;5067930;28;19955;-79
2023/03/23 05:03:19;;;;;;;;;;;10.40;99.90;;;;;;5071910;28;19950;-79
2023/03/23 05:05:51;;;;;;;;;;;10.40;99.90;;;;;;5088404;28;20021;-79
2023/03/23 05:08:18;;;;;;;;;;;10.40;99.90;;;;;;5088185;28;19919;-79
2023/03/23 05:10:49;;;;;;;;;;;10.40;99.90;;;;;;5087804;28;19953;-79
2023/03/23 05:13:15;;;;;;;;;;;10.40;99.90;;;;;;5088106;28;19908;-79
2023/03/23 05:15:41;;;;;;;;;;;10.40;99.90;;;;;;5088008;28;19912;-79
2023/03/23 05:18:06;;;;;;;;;;;10.40;99.90;;;;;;5068565;28;19912;-79
2023/03/23 05:20:33;;;;;;;;;;;10.40;99.90;;;;;;5067129;28;19916;-79
2023/03/23 05:22:59;;;;;;;;;;;10.40;99.90;;;;;;5068034;28;19963;-79
2023/03/23 05:25:24;;;;;;;;;;;10.40;99.90;;;;;;5067918;28;20013;-79
2023/03/23 05:27:52;;;;;;;;;;;10.40;99.90;;;;;;5067880;28;19923;-79
2023/03/23 05:30:18;;;;;;;;;;;10.40;99.90;;;;;;5067286;28;20357;-79
2023/03/23 05:32:44;;;;;;;;;;;10.40;99.90;;;;;;5065538;28;19952;-79
2023/03/23 05:35:11;;;;;;;;;;;10.50;99.90;;;;;;5068152;28;19970;-80
2023/03/23 05:37:37;;;;;;;;;;;10.40;99.90;;;;;;5067088;28;19916;-79
2023/03/23 05:40:06;;;;;;;;;;;10.40;99.90;;;;;;5067439;28;19912;-79
2023/03/23 05:42:32;;;;;;;;;;;10.50;99.90;;;;;;5066943;28;19999;-79
2023/03/23 05:44:58;;;;;;;;;;;10.50;99.90;;;;;;5067866;28;19913;-79
2023/03/23 05:47:25;;;;;;;;;;;10.50;99.90;;;;;;5067024;28;19923;-79
2023/03/23 05:49:51;;;;;;;;;;;10.50;99.90;;;;;;5067059;28;19961;-79
2023/03/23 05:52:17;;;;;;;;;;;10.50;99.90;;;;;;5067301;28;20017;-80
2023/03/23 05:54:43;;;;;;;;;;;10.50;99.90;;;;;;5067802;28;20023;-79
2023/03/23 05:57:08;;;;;;;;;;;10.50;99.90;;;;;;5067590;28;19951;-79
2023/03/23 05:59:34;;;;;;;;;;;10.50;99.90;;;;;;5067177;28;19917;-78
2023/03/23 06:02:00;;;;;;;;;;;10.50;99.90;;;;;;5067049;28;19912;-78
2023/03/23 06:04:27;;;;;;;;;;;10.50;99.90;;;;;;5062871;28;20023;-79
2023/03/23 06:06:52;;;;;;;;;;;10.50;99.90;;;;;;5087305;28;20337;-79
2023/03/23 06:09:18;;;;;;;;;;;10.50;99.90;;;;;;5069569;28;20006;-79
2023/03/23 06:11:44;;;;;;;;;;;10.50;99.90;;;;;;5087262;28;20023;-79
2023/03/23 06:14:09;;;;;;;;;;;10.50;99.90;;;;;;5087895;28;19943;-79
2023/03/23 06:16:35;;;;;;;;;;;10.50;99.90;;;;;;5080503;28;20499;-79
2023/03/23 06:19:01;;;;;;;;;;;10.50;99.90;;;;;;5067688;28;20416;-79
2023/03/23 06:21:27;;;;;;;;;;;10.50;99.90;;;;;;5067079;28;20670;-79
2023/03/23 06:23:53;;;;;;;;;;;10.50;99.90;;;;;;5067139;28;20291;-79
2023/03/23 06:26:19;;;;;;;;;;;10.50;99.90;;;;;;5067310;28;19913;-79
2023/03/23 06:28:45;;;;;;;;;;;10.50;99.90;;;;;;5067181;28;19908;-79
2023/03/23 06:31:11;;;;;;;;;;;10.50;99.90;;;;;;5061603;28;20027;-79
2023/03/23 06:33:37;;;;;;;;;;;10.50;99.90;;;;;;5070571;28;20442;-79
2023/03/23 06:36:03;;;;;;;;;;;10.60;99.90;;;;;;5052690;28;19998;-79
2023/03/23 06:38:29;;;;;;;;;;;10.60;99.90;;;;;;5071013;28;20645;-79
2023/03/23 06:40:55;;;;;;;;;;;10.60;99.90;;;;;;5070501;28;19916;-79
2023/03/23 06:43:21;;;;;;;;;;;10.60;99.90;;;;;;5070579;28;19952;-79
2023/03/23 06:45:46;;;;;;;;;;;10.60;99.90;;;;;;5070578;28;20360;-79
2023/03/23 06:48:12;;;;;;;;;;;10.60;99.90;;;;;;5070415;28;19999;-79
2023/03/23 06:50:38;;;;;;;;;;;10.60;99.90;;;;;;5070045;28;19919;-79
2023/03/23 06:53:03;;;;;;;;;;;10.60;99.90;;;;;;5070440;28;20066;-79
2023/03/23 06:55:29;;;;;;;;;;;10.70;99.90;;;;;;5070815;28;19913;-79
2023/03/23 06:57:55;;;;;;;;;;;10.70;99.90;;;;;;5070134;28;19913;-79
2023/03/23 07:00:20;;;;;;;;;;;10.70;99.90;;;;;;5073054;28;19966;-79
2023/03/23 07:02:46;;;;;;;;;;;10.70;99.90;;;;;;5079694;28;20297;-79
2023/03/23 07:05:12;;;;;;;;;;;10.70;99.90;;;;;;5080448;28;20323;-79
2023/03/23 07:07:39;;;;;;;;;;;10.70;99.90;;;;;;5072158;28;19985;-79
2023/03/23 07:10:06;;;;;;;;;;;10.80;99.90;;;;;;5090724;28;19916;-79
2023/03/23 07:12:32;;;;;;;;;;;10.80;99.90;;;;;;5089894;28;19912;-79
2023/03/23 07:14:58;;;;;;;;;;;10.80;99.90;;;;;;5090257;28;19908;-79
2023/03/23 07:17:24;;;;;;;;;;;10.80;99.90;;;;;;5076244;28;19930;-78
2023/03/23 07:19:50;;;;;;;;;;;10.80;99.90;;;;;;5069247;28;19923;-79
2023/03/23 07:22:16;;;;;;;;;;;10.90;99.90;;;;;;5069633;28;19913;-79
2023/03/23 07:24:41;;;;;;;;;;;10.90;99.90;;;;;;5069931;28;19908;-79
2023/03/23 07:27:07;;;;;;;;;;;10.90;99.90;;;;;;5070059;28;19913;-80
2023/03/23 07:29:35;;;;;;;;;;;10.90;99.90;;;;;;5067868;28;19919;-79
2023/03/23 07:32:01;;;;;;;;;;;10.90;99.90;;;;;;5063804;28;20591;-79
2023/03/23 07:34:27;;;;;;;;;;;10.90;99.90;;;;;;5069671;28;19912;-79
2023/03/23 07:36:52;;;;;;;;;;;11.00;99.90;;;;;;5051502;28;19999;-79
2023/03/23 07:39:18;;;;;;;;;;;11.00;99.90;;;;;;5069416;28;19982;-79
2023/03/23 07:41:43;;;;;;;;;;;11.00;99.90;;;;;;5068881;28;19924;-79
2023/03/23 07:44:09;;;;;;;;;;;11.00;99.90;;;;;;5082404;28;19951;-79
2023/03/23 07:46:35;;;;;;;;;;;11.00;99.90;;;;;;5082608;28;19915;-79
2023/03/23 07:49:05;;;;;;;;;;;11.10;99.90;;;;;;5069528;28;20361;-79
2023/03/23 07:51:31;;;;;;;;;;;11.10;99.90;;;;;;5050887;28;19923;-80
2023/03/23 07:53:57;;;;;;;;;;;11.10;99.90;;;;;;5056099;28;19913;-79
2023/03/23 07:56:22;;;;;;;;;;;11.10;99.90;;;;;;5068993;28;19912;-79
2023/03/23 07:58:48;;;;;;;;;;;11.20;99.90;;;;;;5069293;28;19912;-79
2023/03/23 08:01:13;;;;;;;;;;;11.20;99.90;;;;;;5068875;28;20478;-79
2023/03/23 08:03:39;;;;;;;;;;;11.20;99.90;;;;;;5069039;28;20022;-79
2023/03/23 08:06:05;;;;;;;;;;;11.20;99.90;;;;;;5069187;28;19913;-79
2023/03/23 08:08:31;;;;;;;;;;;11.20;99.90;;;;;;5068976;28;20341;-79
2023/03/23 08:10:57;;;;;;;;;;;11.20;99.90;;;;;;5068847;28;20357;-79
2023/03/23 08:13:23;;;;;;;;;;;11.30;99.90;;;;;;5068672;28;19909;-81
2023/03/23 08:15:49;;;;;;;;;;;11.30;99.90;;;;;;5068897;28;19912;-79
2023/03/23 08:18:15;;;;;;;;;;;11.30;99.90;;;;;;5068794;28;19998;-79
2023/03/23 08:20:41;;;;;;;;;;;11.30;99.90;;;;;;5073117;28;20015;-79
2023/03/23 08:23:07;;;;;;;;;;;11.30;99.90;;;;;;5080448;28;20323;-79
2023/03/23 08:25:33;;;;;;;;;;;11.30;99.90;;;;;;5088994;28;19964;-79
2023/03/23 08:28:01;;;;;;;;;;;11.30;99.90;;;;;;5089010;28;19980;-79
2023/03/23 08:30:28;;;;;;;;;;;11.40;99.90;;;;;;5079314;28;19908;-79
2023/03/23 08:32:54;;;;;;;;;;;11.40;99.90;;;;;;5076099;28;19913;-79
2023/03/23 08:35:20;;;;;;;;;;;11.40;99.90;;;;;;5088991;28;19912;-79
2023/03/23 08:37:46;;;;;;;;;;;11.40;99.90;;;;;;5088525;28;20349;-80
2023/03/23 08:40:13;;;;;;;;;;;11.40;99.90;;;;;;5081241;28;20380;-79
2023/03/23 08:42:40;;;;;;;;;;;11.50;99.90;;;;;;5050436;28;19921;-80
2023/03/23 08:45:07;;;;;;;;;;;11.50;99.90;;;;;;5068750;28;19916;-79
2023/03/23 08:47:32;;;;;;;;;;;11.50;99.90;;;;;;5067987;28;19908;-80
2023/03/23 08:49:58;;;;;;;;;;;11.60;99.90;;;;;;5068224;28;20424;-79
2023/03/23 08:52:24;;;;;;;;;;;11.60;99.90;;;;;;5068070;28;19912;-79
2023/03/23 08:54:50;;;;;;;;;;;11.60;99.90;;;;;;5067587;28;19916;-79
2023/03/23 08:57:15;;;;;;;;;;;11.70;99.90;;;;;;5050235;28;19912;-79
2023/03/23 08:59:41;;;;;;;;;;;11.70;99.90;;;;;;5049976;28;19915;-80
2023/03/23 09:02:11;;;;;;;;;;;11.70;99.90;;;;;;5067667;28;19912;-80
2023/03/23 09:04:37;;;;;;;;;;;11.70;99.90;;;;;;5083156;28;19951;-80
2023/03/23 09:07:03;;;;;;;;;;;11.70;99.90;;;;;;5087909;28;19972;-80
2023/03/23 09:09:28;;;;;;;;;;;11.80;99.90;;;;;;5088478;28;19915;-79
2023/03/23 09:11:54;;;;;;;;;;;11.80;99.80;;;;;;5087675;28;20265;-79
2023/03/23 09:14:20;;;;;;;;;;;11.90;99.80;;;;;;5088262;28;19912;-79
2023/03/23 09:16:46;;;;;;;;;;;11.90;99.80;;;;;;5079517;28;19920;-79
2023/03/23 09:19:12;;;;;;;;;;;11.90;99.80;;;;;;5068384;28;19916;-80
2023/03/23 09:21:37;;;;;;;;;;;11.90;99.80;;;;;;5067511;28;19924;-79
2023/03/23 09:24:04;;;;;;;;;;;11.90;99.70;;;;;;5067727;28;19934;-79
2023/03/23 09:26:30;;;;;;;;;;;11.90;99.80;;;;;;5049935;28;19913;-80
2023/03/23 09:28:56;;;;;;;;;;;11.90;99.80;;;;;;5067838;28;19999;-80
2023/03/23 09:31:22;;;;;;;;;;;11.90;99.80;;;;;;5060898;28;19908;-79
2023/03/23 09:33:51;;;;;;;;;;;11.90;99.80;;;;;;5065748;28;20454;-80
2023/03/23 09:36:17;;;;;;;;;;;12.00;99.80;;;;;;5059290;28;19916;-79
2023/03/23 09:38:45;;;;;;;;;;;11.90;99.80;;;;;;5052290;28;19952;-80
2023/03/23 09:41:20;;;;;;;;;;;12.00;99.80;;;;;;5066733;28;20434;-79
2023/03/23 09:43:59;;;;;;;;;;;12.00;99.80;;;;;;5072988;28;19951;-80
2023/03/23 09:46:34;;;;;;;;;;;12.00;99.80;;;;;;5066615;28;19920;-79
2023/03/23 09:49:02;;;;;;;;;;;12.00;99.80;;;;;;5066995;28;19916;-80
2023/03/23 09:51:27;;;;;;;;;;;12.00;99.70;;;;;;5051727;28;19995;-79
2023/03/23 09:54:00;;;;;;;;;;;12.10;99.80;;;;;;5067339;28;20018;-79
2023/03/23 09:56:27;;;;;;;;;;;12.10;99.80;;;;;;5061157;28;19912;-79
2023/03/23 09:58:55;;;;;;;;;;;12.10;99.80;;;;;;5047546;28;19913;-80
2023/03/23 10:01:21;;;;;;;;;;;12.10;99.70;;;;;;5047106;28;20058;-80
2023/03/23 10:03:47;;;;;;;;;;;12.10;99.70;;;;;;5063331;28;20006;-79
2023/03/23 10:06:15;;;;;;;;;;;12.10;99.70;;;;;;5088776;28;20038;-79
2023/03/23 10:08:48;;;;;;;;;;;12.10;99.80;;;;;;5091185;28;19923;-79
2023/03/23 10:11:14;;;;;;;;;;;12.10;99.80;;;;;;5091179;28;19943;-80
2023/03/23 10:13:39;;;;;;;;;;;12.10;99.70;;;;;;5091120;28;20612;-79
2023/03/23 10:16:09;;;;;;;;;;;12.10;99.80;;;;;;5088757;28;19912;-81
2023/03/23 10:18:40;;;;;;;;;;;12.10;99.80;;;;;;5070676;28;19916;-79
2023/03/23 10:21:10;;;;;;;;;;;12.10;99.90;;;;;;5070287;28;19921;-79
2023/03/23 10:23:46;;;;;;;;;;;12.10;99.90;;;;;;5069587;28;20027;-79
2023/03/23 10:26:17;;;;;;;;;;;12.10;99.90;;;;;;5051616;28;19912;-79
2023/03/23 10:28:44;;;;;;;;;;;12.00;99.90;;;;;;5070128;28;20313;-78
2023/03/23 10:31:42;;;;;;;;;;;12.00;99.90;;;;;;5069902;28;19908;-79
2023/03/23 10:34:28;;;;;;;;;;;12.00;99.90;;;;;;5034073;28;19917;-79
2023/03/23 10:37:01;;;;;;;;;;;11.90;99.90;;;;;;5070796;28;19918;-79
2023/03/23 10:39:51;;;;;;;;;;;11.90;99.90;;;;;;5054734;28;19913;-79
2023/03/23 10:42:24;;;;;;;;;;;11.90;99.90;;;;;;5072146;28;19913;-79
2023/03/23 10:44:50;;;;;;;;;;;11.90;99.90;;;;;;5090463;28;20011;-79
2023/03/23 10:47:17;;;;;;;;;;;11.90;99.90;;;;;;5078145;28;20011;-79
2023/03/23 10:49:54;;;;;;;;;;;11.90;99.90;;;;;;5070077;28;19916;-79
2023/03/23 10:52:22;;;;;;;;;;;11.80;99.90;;;;;;5069669;28;19995;-80
2023/03/23 10:55:06;;;;;;;;;;;11.80;99.90;;;;;;5070251;28;20022;-79
2023/03/23 10:57:33;;;;;;;;;;;11.90;99.90;;;;;;5070062;28;19919;-79
2023/03/23 11:00:06;;;;;;;;;;;11.90;99.90;;;;;;5070054;28;19941;-79
2023/03/23 11:02:42;;;;;;;;;;;11.80;99.90;;;;;;5069717;28;20007;-79
2023/03/23 11:05:22;;;;;;;;;;;11.80;99.90;;;;;;5071232;28;19912;-79
2023/03/23 11:07:51;;;;;;;;;;;11.80;99.90;;;;;;5089940;28;19958;-79
2023/03/23 11:10:21;;;;;;;;;;;11.90;99.90;;;;;;5090051;28;19918;-78
2023/03/23 11:12:47;;;;;;;;;;;11.90;99.90;;;;;;5089632;28;19942;-79
2023/03/23 11:15:24;;;;;;;;;;;11.90;99.90;;;;;;5089930;28;20368;-79
2023/03/23 11:17:58;;;;;;;;;;;11.90;99.90;;;;;;5072076;28;20300;-79
2023/03/23 11:20:24;;;;;;;;;;;11.80;99.90;;;;;;5063662;28;19920;-78
2023/03/23 11:22:49;;;;;;;;;;;11.80;99.90;;;;;;5055056;28;19970;-79
2023/03/23 11:25:15;;;;;;;;;;;11.80;99.90;;;;;;5077905;28;20255;-78
2023/03/23 11:27:42;;;;;;;;;;;11.80;99.90;;;;;;5069150;28;19931;-79
2023/03/23 11:30:08;;;;;;;;;;;11.70;99.90;;;;;;5068613;28;19912;-78
2023/03/23 11:32:35;;;;;;;;;;;11.80;99.90;;;;;;5066960;28;20682;-79
2023/03/23 11:35:04;;;;;;;;;;;11.70;99.90;;;;;;5052983;28;19913;-78
2023/03/23 11:37:34;;;;;;;;;;;11.70;99.90;;;;;;5062714;28;19966;-79
2023/03/23 11:40:15;;;;;;;;;;;11.70;99.90;;;;;;5069453;28;20320;-78
2023/03/23 11:42:44;;;;;;;;;;;11.70;99.90;;;;;;5068718;28;19916;-78
2023/03/23 11:45:13;;;;;;;;;;;11.70;99.90;;;;;;5068861;28;19912;-78
2023/03/23 11:48:00;;;;;;;;;;;11.70;99.90;;;;;;5068723;28;20297;-78
2023/03/23 11:50:32;;;;;;;;;;;11.70;99.90;;;;;;5069104;28;19916;-78
2023/03/23 11:53:07;;;;;;;;;;;11.70;99.90;;;;;;5068728;28;19952;-78
2023/03/23 11:55:32;;;;;;;;;;;11.70;99.90;;;;;;5069238;28;19909;-79
2023/03/23 11:58:02;;;;;;;;;;;11.70;99.90;;;;;;5068680;28;19912;-79
2023/03/23 12:00:28;;;;;;;;;;;11.60;99.90;;;;;;5068872;28;19916;-78
2023/03/23 12:03:12;;;;;;;;;;;11.60;99.90;;;;;;5069480;28;19965;-78
2023/03/23 12:05:57;;;;;;;;;;;11.60;99.90;;;;;;5089065;28;19908;-79
2023/03/23 12:08:41;;;;;;;;;;;11.60;99.90;;;;;;5089020;28;19915;-78
2023/03/23 12:11:07;;;;;;;;;;;11.60;99.90;;;;;;5088726;28;19912;-78
2023/03/23 12:13:52;;;;;;;;;;;11.70;99.90;;;;;;5089137;28;19919;-78
2023/03/23 12:16:34;;;;;;;;;;;11.70;99.90;;;;;;5075543;28;19999;-79
2023/03/23 12:18:59;;;;;;;;;;;11.80;99.90;;;;;;5072336;28;20254;-79
2023/03/23 12:21:32;;;;;;;;;;;11.80;99.90;;;;;;5076976;28;19920;-79
2023/03/23 12:23:57;;;;;;;;;;;11.80;99.90;;;;;;5077032;28;19979;-78
2023/03/23 12:26:26;;;;;;;;;;;11.80;99.90;;;;;;5078595;28;20049;-79
2023/03/23 12:28:58;;;;;;;;;;;11.80;99.90;;;;;;5078282;28;19912;-79
2023/03/23 12:31:29;;;;;;;;;;;11.80;99.90;;;;;;5071834;28;20023;-79
2023/03/23 12:34:10;;;;;;;;;;;11.80;99.90;;;;;;5077866;28;19912;-79
2023/03/23 12:36:35;;;;;;;;;;;11.80;99.90;;;;;;5078153;28;19911;-78
2023/03/23 12:39:09;;;;;;;;;;;11.80;99.90;;;;;;5077050;28;20385;-78
2023/03/23 12:41:46;;;;;;;;;;;11.80;99.90;;;;;;5075689;28;19916;-78
2023/03/23 12:44:14;;;;;;;;;;;11.70;99.90;;;;;;5076975;28;19912;-79
2023/03/23 12:46:42;;;;;;;;;;;11.80;99.90;;;;;;5073532;28;19963;-79
2023/03/23 12:49:11;;;;;;;;;;;11.70;99.90;;;;;;5069872;28;20417;-79
2023/03/23 12:51:55;;;;;;;;;;;11.70;99.90;;;;;;5069295;28;19919;-78
2023/03/23 12:54:21;;;;;;;;;;;11.70;99.90;;;;;;5068005;28;19912;-78
2023/03/23 12:56:47;;;;;;;;;;;11.70;99.90;;;;;;5068180;28;19919;-78
2023/03/23 12:59:42;;;;;;;;;;;11.70;99.90;;;;;;5049760;28;19913;-79
2023/03/23 13:02:14;;;;;;;;;;;11.70;99.90;;;;;;5054147;28;19916;-78
2023/03/23 13:04:44;;;;;;;;;;;11.70;99.90;;;;;;5074617;28;20423;-78
2023/03/23 13:07:13;;;;;;;;;;;11.70;99.90;;;;;;5065151;28;20536;-78
2023/03/23 13:09:52;;;;;;;;;;;11.80;99.90;;;;;;5068098;28;19919;-78
2023/03/23 13:12:19;;;;;;;;;;;11.70;99.90;;;;;;5067839;28;19912;-78
2023/03/23 13:14:57;;;;;;;;;;;11.70;99.90;;;;;;5068249;28;19908;-78
2023/03/23 13:17:26;;;;;;;;;;;11.80;99.90;;;;;;5067632;28;19940;-78
2023/03/23 13:19:51;;;;;;;;;;;11.80;99.90;;;;;;5067716;28;19961;-78
2023/03/23 13:22:23;;;;;;;;;;;11.80;99.90;;;;;;5073143;28;20323;-78
2023/03/23 13:24:55;;;;;;;;;;;11.80;99.90;;;;;;5087639;28;20230;-79
2023/03/23 13:27:28;;;;;;;;;;;11.80;99.90;;;;;;5087658;28;19908;-79
2023/03/23 13:29:55;;;;;;;;;;;11.80;99.90;;;;;;5061576;28;19944;-78
2023/03/23 13:32:23;;;;;;;;;;;11.80;99.90;;;;;;5064133;28;19916;-78
2023/03/23 13:34:48;;;;;;;;;;;11.80;99.90;;;;;;5067795;28;19958;-78
2023/03/23 13:37:26;;;;;;;;;;;11.80;99.90;;;;;;5065084;28;19916;-78
2023/03/23 13:39:56;;;;;;;;;;;11.90;99.90;;;;;;5067273;28;19908;-79
2023/03/23 13:42:35;;;;;;;;;;;11.90;99.90;;;;;;5070476;28;19970;-78
2023/03/23 13:45:16;;;;;;;;;;;12.00;99.90;;;;;;5070306;28;19931;-77
2023/03/23 13:47:43;;;;;;;;;;;12.00;99.90;;;;;;5056059;28;20285;-77
2023/03/23 13:50:09;;;;;;;;;;;12.00;99.90;;;;;;5070061;28;20626;-76
2023/03/23 13:52:43;;;;;;;;;;;12.00;99.90;;;;;;5069989;28;19958;-76
2023/03/23 13:55:15;;;;;;;;;;;12.10;99.90;;;;;;5070220;28;19920;-77
2023/03/23 13:57:50;;;;;;;;;;;12.10;99.90;;;;;;5069557;28;19921;-77
2023/03/23 14:00:45;;;;;;;;;;;12.10;99.90;;;;;;5059590;28;19920;-77
2023/03/23 14:03:10;;;;;;;;;;;12.10;99.90;;;;;;5042606;28;19916;-77
2023/03/23 14:05:43;;;;;;;;;;;12.10;99.90;;;;;;5079041;28;19930;-77
2023/03/23 14:08:08;;;;;;;;;;;12.10;99.90;;;;;;5076418;28;19965;-77
2023/03/23 14:10:35;;;;;;;;;;;12.10;99.90;;;;;;5079267;28;19915;-77
2023/03/23 14:13:02;;;;;;;;;;;12.10;99.90;;;;;;5084473;28;20238;-77
2023/03/23 14:15:28;;;;;;;;;;;12.10;99.90;;;;;;5090976;28;20593;-77
2023/03/23 14:17:54;;;;;;;;;;;12.10;99.90;;;;;;5072698;28;20097;-77
2023/03/23 14:20:29;;;;;;;;;;;12.10;99.90;;;;;;5070616;28;20002;-77
2023/03/23 14:22:55;;;;;;;;;;;12.20;99.90;;;;;;5069420;28;19920;-77
2023/03/23 14:25:23;;;;;;;;;;;12.20;99.90;;;;;;5070102;28;20511;-77